Time;durP1;ratioP1;P1;durP2;ratioP2;P2;SDS_P1;SDS_P2;PMS_P1;PMS_P2;Temp;Humidity;BMP_temperature;BMP_pressure;BME280_temperature;BME280_humidity;BME280_pressure;Samples;Min_cycle;Max_cycle;Signal;HPM_P1;HPM_P2
2022/09/30 00:00:32;;;;;;;3.00;2.77;;;;;;;10.21;96.76;94492.94;4392509;32;20185;-66
2022/09/30 00:02:57;;;;;;;5.00;2.60;;;;;;;10.28;96.87;94503.88;4383126;32;20196;-66
2022/09/30 00:05:24;;;;;;;1.63;1.60;;;;;;;10.44;96.16;94500.75;4406843;32;20206;-65
2022/09/30 00:07:51;;;;;;;2.53;2.43;;;;;;;10.36;95.86;94502.31;4388453;32;20230;-66
2022/09/30 00:10:18;;;;;;;1.30;1.30;;;;;;;10.43;95.43;94509.78;4389406;32;20225;-66
2022/09/30 00:12:45;;;;;;;1.40;1.30;;;;;;;10.49;95.09;94500.59;4361332;32;20200;-66
2022/09/30 00:15:15;;;;;;;2.33;2.23;;;;;;;10.54;94.80;94514.50;4378094;32;20315;-66
2022/09/30 00:17:43;;;;;;;2.53;2.23;;;;;;;10.50;94.90;94510.12;4356064;32;20196;-66
2022/09/30 00:20:09;;;;;;;2.20;2.10;;;;;;;10.51;95.13;94511.69;4378162;32;20198;-66
2022/09/30 00:22:34;;;;;;;2.10;2.00;;;;;;;10.47;94.88;94519.47;4369431;32;20189;-66
2022/09/30 00:25:04;;;;;;;2.50;2.30;;;;;;;10.41;94.94;94517.28;4392743;32;20266;-66
2022/09/30 00:27:31;;;;;;;1.80;1.80;;;;;;;10.26;96.48;94511.34;4376029;32;20191;-66
2022/09/30 00:29:59;;;;;;;1.40;1.40;;;;;;;10.36;96.82;94514.81;4387155;32;20212;-66
2022/09/30 00:32:24;;;;;;;1.87;1.77;;;;;;;10.31;96.57;94513.84;4424844;32;20293;-66
2022/09/30 00:34:51;;;;;;;1.83;1.83;;;;;;;10.31;96.86;94519.16;4371980;32;20201;-66
2022/09/30 00:37:18;;;;;;;2.03;1.83;;;;;;;10.33;96.45;94509.03;4356956;32;20214;-66
2022/09/30 00:39:44;;;;;;;3.43;1.50;;;;;;;10.38;96.21;94508.09;4373551;32;20181;-66
2022/09/30 00:42:25;;;;;;;1.80;1.70;;;;;;;10.41;96.25;94514.63;4380030;32;20249;-64
2022/09/30 00:45:02;;;;;;;1.23;1.13;;;;;;;10.45;95.95;94508.41;4392531;32;20199;-64
2022/09/30 00:48:17;;;;;;;2.77;2.67;;;;;;;10.38;96.14;94507.31;4385757;32;20199;-63
2022/09/30 00:50:46;;;;;;;1.90;1.80;;;;;;;10.38;95.96;94507.31;4361543;32;20239;-64
2022/09/30 00:53:46;;;;;;;1.37;1.33;;;;;;;10.28;96.49;94492.50;4387901;32;20222;-64
2022/09/30 00:56:23;;;;;;;1.53;1.43;;;;;;;10.27;96.74;94502.31;4387780;32;20214;-64
2022/09/30 00:59:12;;;;;;;2.03;1.93;;;;;;;10.22;97.18;94502.47;4374539;32;20187;-64
2022/09/30 01:01:41;;;;;;;1.30;1.30;;;;;;;10.32;96.84;94507.47;4380090;32;20188;-64
2022/09/30 01:04:17;;;;;;;2.63;2.53;;;;;;;10.28;96.58;94511.03;4393290;32;20197;-64
2022/09/30 01:06:43;;;;;;;1.77;1.67;;;;;;;10.38;96.17;94517.94;4381087;32;20231;-64
2022/09/30 01:09:10;;;;;;;1.50;1.50;;;;;;;10.26;96.22;94526.47;4401157;32;20259;-64
2022/09/30 01:11:36;;;;;;;1.93;1.83;;;;;;;10.33;96.20;94534.75;4392714;32;20263;-64
2022/09/30 01:14:08;;;;;;;1.23;1.23;;;;;;;10.35;96.29;94537.09;4393400;32;20189;-64
2022/09/30 01:17:07;;;;;;;1.40;1.30;;;;;;;10.38;96.20;94531.19;4362198;32;20188;-64
2022/09/30 01:20:02;;;;;;;1.30;1.30;;;;;;;10.19;96.48;94537.53;4376212;32;20218;-63
2022/09/30 01:22:44;;;;;;;1.27;1.27;;;;;;;10.33;96.04;94532.09;4355558;32;20212;-64
2022/09/30 01:25:52;;;;;;;0.90;0.90;;;;;;;10.35;95.61;94534.44;4400026;32;20207;-64
2022/09/30 01:28:43;;;;;;;1.37;1.37;;;;;;;10.33;95.34;94534.75;4389232;32;20203;-64
2022/09/30 01:31:42;;;;;;;1.20;1.10;;;;;;;10.24;95.48;94540.03;4369989;32;20239;-64
2022/09/30 01:34:23;;;;;;;1.07;1.07;;;;;;;10.30;94.88;94530.84;4363100;32;20246;-64
2022/09/30 01:37:34;;;;;;;1.20;1.20;;;;;;;10.18;95.25;94540.47;4397111;32;20193;-66
2022/09/30 01:40:09;;;;;;;1.57;1.50;;;;;;;10.22;95.56;94552.81;4348543;32;20184;-66
2022/09/30 01:42:57;;;;;;;1.33;1.23;;;;;;;10.25;95.23;94557.50;4375229;32;20221;-66
2022/09/30 01:46:04;;;;;;;1.57;1.57;;;;;;;10.25;94.94;94557.50;4394203;32;20261;-64
2022/09/30 01:48:51;;;;;;;0.80;0.80;;;;;;;10.16;95.83;94564.66;4347896;32;20267;-63
2022/09/30 01:51:53;;;;;;;1.70;1.60;;;;;;;10.03;96.44;94570.81;4395709;32;20214;-64
2022/09/30 01:54:40;;;;;;;0.70;0.70;;;;;;;10.15;96.12;94562.31;4398196;32;20258;-64
2022/09/30 01:57:51;;;;;;;1.23;1.23;;;;;;;10.20;95.94;94562.94;4381905;32;20184;-64
2022/09/30 02:00:18;;;;;;;1.23;1.23;;;;;;;10.11;96.12;94556.84;4365712;32;20227;-64
2022/09/30 02:02:52;;;;;;;1.70;1.60;;;;;;;9.96;96.34;94560.69;4395306;32;20196;-64
2022/09/30 02:05:30;;;;;;;1.30;1.20;;;;;;;10.03;96.27;94559.44;4394297;32;20254;-63
2022/09/30 02:08:28;;;;;;;1.50;1.40;;;;;;;10.05;96.44;94558.06;4368975;32;20286;-64
2022/09/30 02:11:06;;;;;;;1.43;1.33;;;;;;;10.08;95.58;94568.03;4363698;32;20207;-64
2022/09/30 02:13:53;;;;;;;0.90;0.90;;;;;;;9.93;96.33;94561.31;4382754;32;20187;-64
2022/09/30 02:16:28;;;;;;;1.00;1.00;;;;;;;10.04;96.03;94559.16;4375387;32;20233;-64
2022/09/30 02:19:09;;;;;;;1.20;1.20;;;;;;;10.11;96.12;94561.34;4389897;32;20263;-64
2022/09/30 02:21:42;;;;;;;1.20;1.20;;;;;;;10.04;96.32;94559.16;4345212;32;20181;-64
2022/09/30 02:24:24;;;;;;;1.07;1.07;;;;;;;10.12;96.12;94555.75;4352929;32;20197;-64
2022/09/30 02:26:55;;;;;;;1.30;1.30;;;;;;;10.09;96.48;94553.72;4394999;32;20222;-64
2022/09/30 02:29:27;;;;;;;1.43;1.43;;;;;;;10.05;96.28;94547.47;4377373;32;20196;-64
2022/09/30 02:31:59;;;;;;;1.30;1.30;;;;;;;10.12;96.30;94547.78;4369541;32;20236;-64
2022/09/30 02:34:33;;;;;;;1.03;1.03;;;;;;;10.08;95.81;94552.16;4385717;32;21885;-64
2022/09/30 02:37:10;;;;;;;1.60;1.50;;;;;;;10.13;95.92;94559.19;4394769;32;20246;-64
2022/09/30 02:39:47;;;;;;;1.40;1.40;;;;;;;10.06;96.51;94556.97;4395443;32;20190;-64
2022/09/30 02:42:21;;;;;;;8.23;1.53;;;;;;;10.12;96.14;94555.75;4388942;32;20258;-64
2022/09/30 02:44:49;;;;;;;1.47;1.43;;;;;;;10.08;96.14;94552.16;4371702;32;20196;-64
2022/09/30 02:47:38;;;;;;;1.10;1.10;;;;;;;10.23;95.24;94546.44;4365267;32;20189;-64
2022/09/30 02:50:30;;;;;;;0.97;0.97;;;;;;;10.20;94.55;94544.37;4411186;32;20207;-64
2022/09/30 02:53:31;;;;;;;1.33;1.33;;;;;;;10.21;94.69;94550.47;4389382;32;20331;-64
2022/09/30 02:56:18;;;;;;;1.00;1.00;;;;;;;10.25;94.40;94554.84;4396661;32;20195;-64
2022/09/30 02:58:45;;;;;;;1.70;1.60;;;;;;;10.12;95.07;94558.41;4374815;32;20214;-66
2022/09/30 03:01:16;;;;;;;2.87;0.97;;;;;;;9.99;95.49;94575.97;4353830;32;20262;-66
2022/09/30 03:04:03;;;;;;;1.60;1.60;;;;;;;10.14;95.32;94572.13;4398411;32;20189;-66
2022/09/30 03:06:32;;;;;;;1.60;1.60;;;;;;;10.17;95.21;94571.50;4352537;32;20228;-66
2022/09/30 03:08:58;;;;;;;3.10;1.63;;;;;;;10.17;95.18;94576.81;4371049;32;20271;-64
2022/09/30 03:11:27;;;;;;;4.17;1.50;;;;;;;10.13;94.65;94583.81;4385220;32;20207;-64
2022/09/30 03:14:32;;;;;;;1.73;1.63;;;;;;;10.02;94.62;94585.16;4362278;32;20181;-64
2022/09/30 03:17:21;;;;;;;1.00;1.00;;;;;;;10.13;95.28;94583.81;4390914;32;20179;-64
2022/09/30 03:20:17;;;;;;;1.20;1.20;;;;;;;10.10;95.23;94589.72;4386235;32;20285;-64
2022/09/30 03:23:01;;;;;;;1.13;1.13;;;;;;;9.84;96.65;94584.34;4367161;32;20241;-64
2022/09/30 03:25:52;;;;;;;1.60;1.00;;;;;;;9.88;96.98;94589.81;4361324;32;20207;-64
2022/09/30 03:28:33;;;;;;;1.43;1.43;;;;;;;9.95;96.72;94601.53;4349028;32;20184;-64
2022/09/30 03:31:25;;;;;;;1.40;1.40;;;;;;;9.96;96.43;94589.06;4337581;32;20295;-64
2022/09/30 03:34:07;;;;;;;1.67;1.57;;;;;;;9.86;96.45;94595.41;4382118;32;20196;-64
2022/09/30 03:37:07;;;;;;;0.90;0.90;;;;;;;9.91;97.09;94592.62;4371371;32;20265;-64
2022/09/30 03:40:06;;;;;;;1.83;1.73;;;;;;;9.87;97.38;94609.44;4389447;32;20185;-64
2022/09/30 03:42:59;;;;;;;0.90;0.90;;;;;;;9.81;97.31;94615.94;4359840;32;20286;-64
2022/09/30 03:45:54;;;;;;;1.20;1.10;;;;;;;9.90;97.16;94619.41;4362888;32;20184;-64
2022/09/30 03:48:23;;;;;;;1.03;1.03;;;;;;;9.81;97.67;94614.06;4409640;32;20264;-64
2022/09/30 03:50:58;;;;;;;1.27;1.27;;;;;;;9.76;98.05;94622.19;4383664;32;20214;-64
2022/09/30 03:53:27;;;;;;;1.33;1.23;;;;;;;9.84;97.80;94621.41;4379917;32;26152;-64
2022/09/30 03:55:57;;;;;;;1.00;1.00;;;;;;;9.83;97.82;94616.41;4377129;32;20255;-64
2022/09/30 03:58:26;;;;;;;2.53;2.33;;;;;;;9.85;97.89;94627.50;4349749;32;20224;-64
2022/09/30 04:00:56;;;;;;;1.53;1.43;;;;;;;9.86;97.42;94618.47;4385703;32;20260;-64
2022/09/30 04:03:22;;;;;;;1.20;1.20;;;;;;;9.92;97.49;94617.25;4390345;32;20232;-64
2022/09/30 04:05:50;;;;;;;1.23;0.93;;;;;;;9.80;97.67;94619.69;4382303;32;20216;-64
2022/09/30 04:08:18;;;;;;;1.40;1.40;;;;;;;9.98;97.23;94627.37;4405236;32;20207;-64
2022/09/30 04:10:48;;;;;;;1.57;1.50;;;;;;;9.76;97.98;94624.03;4388895;32;20206;-64
2022/09/30 04:13:13;;;;;;;1.67;1.67;;;;;;;9.91;97.41;94628.94;4375950;32;20216;-64
2022/09/30 04:15:40;;;;;;;1.27;1.27;;;;;;;9.86;97.40;94634.34;4392059;32;20176;-64
2022/09/30 04:18:07;;;;;;;1.60;1.53;;;;;;;9.90;97.05;94630.81;4397204;32;20199;-64
2022/09/30 04:20:34;;;;;;;1.63;1.63;;;;;;;9.91;96.77;94627.06;4397385;32;20259;-64
2022/09/30 04:23:01;;;;;;;3.00;2.03;;;;;;;9.82;96.91;94633.41;4395082;32;20183;-64
2022/09/30 04:25:27;;;;;;;1.50;1.47;;;;;;;9.88;97.16;94638.28;4409406;32;20184;-64
2022/09/30 04:27:55;;;;;;;1.87;1.83;;;;;;;9.86;97.30;94635.13;4383154;32;20236;-64
2022/09/30 04:30:20;;;;;;;1.67;1.67;;;;;;;9.87;97.10;94635.94;4399503;32;20195;-64
2022/09/30 04:32:48;;;;;;;2.20;2.10;;;;;;;9.82;97.39;94638.69;4385701;32;20244;-65
2022/09/30 04:35:14;;;;;;;2.37;2.17;;;;;;;9.78;97.09;94633.22;4386723;32;20235;-64
2022/09/30 04:37:46;;;;;;;0.93;0.93;;;;;;;9.75;97.25;94639.16;4375854;32;20245;-64
2022/09/30 04:40:13;;;;;;;1.77;1.63;;;;;;;9.94;96.61;94644.22;4395452;32;20184;-64
2022/09/30 04:42:41;;;;;;;1.70;1.70;;;;;;;9.86;97.12;94655.56;4392609;32;20211;-64
2022/09/30 04:45:11;;;;;;;2.10;1.90;;;;;;;9.97;96.51;94648.91;4384352;32;20211;-64
2022/09/30 04:47:36;;;;;;;1.40;1.40;;;;;;;10.08;95.69;94652.06;4411458;32;20233;-63
2022/09/30 04:50:06;;;;;;;1.93;1.83;;;;;;;10.08;95.36;94660.00;4404818;32;20177;-64
2022/09/30 04:52:32;;;;;;;2.70;2.50;;;;;;;9.89;95.76;94665.53;4393354;32;20176;-64
2022/09/30 04:54:57;;;;;;;1.57;1.57;;;;;;;9.83;96.22;94670.19;4380686;32;20176;-64
2022/09/30 04:57:24;;;;;;;1.57;1.57;;;;;;;9.75;96.52;94670.16;4393799;32;20235;-64
2022/09/30 04:59:50;;;;;;;2.83;2.73;;;;;;;9.82;96.34;94675.78;4331696;32;20205;-64
2022/09/30 05:02:18;;;;;;;2.63;2.53;;;;;;;9.75;96.69;94673.59;4361292;32;20191;-64
2022/09/30 05:04:44;;;;;;;2.23;2.10;;;;;;;9.77;96.58;94683.88;4391469;32;20201;-64
2022/09/30 05:07:12;;;;;;;2.50;2.40;;;;;;;9.74;96.46;94679.97;4407582;32;20177;-64
2022/09/30 05:09:39;;;;;;;2.23;2.13;;;;;;;9.74;96.07;94679.19;4395065;32;20195;-64
2022/09/30 05:12:04;;;;;;;2.43;2.27;;;;;;;9.71;96.50;94674.50;4410059;32;20180;-64
2022/09/30 05:14:32;;;;;;;2.10;2.07;;;;;;;9.82;95.96;94665.19;4389090;32;20184;-64
2022/09/30 05:17:00;;;;;;;2.40;2.30;;;;;;;9.82;96.02;94659.88;4362186;32;20180;-64
2022/09/30 05:19:28;;;;;;;2.50;2.40;;;;;;;9.89;95.95;94668.97;4397729;32;20279;-64
2022/09/30 05:21:54;;;;;;;2.27;2.17;;;;;;;9.97;95.50;94675.41;4394303;32;20197;-64
2022/09/30 05:24:22;;;;;;;2.20;2.10;;;;;;;10.00;95.35;94682.72;4392654;32;20223;-64
2022/09/30 05:26:49;;;;;;;2.37;2.17;;;;;;;9.98;95.46;94692.84;4382682;32;20180;-64
2022/09/30 05:29:14;;;;;;;2.10;2.00;;;;;;;9.79;95.91;94697.56;4385306;32;20214;-64
2022/09/30 05:31:41;;;;;;;2.10;2.00;;;;;;;9.81;96.23;94692.75;4403811;32;20188;-64
2022/09/30 05:34:07;;;;;;;3.53;3.23;;;;;;;9.86;96.23;94690.00;4391518;32;20204;-64
2022/09/30 05:36:35;;;;;;;2.50;2.40;;;;;;;9.72;96.66;94697.25;4383257;32;20189;-64
2022/09/30 05:39:02;;;;;;;2.30;2.20;;;;;;;9.93;95.96;94698.28;4396632;32;20204;-66
2022/09/30 05:41:31;;;;;;;2.60;2.50;;;;;;;9.97;95.71;94694.75;4378542;32;20374;-66
2022/09/30 05:43:59;;;;;;;3.57;3.37;;;;;;;9.90;96.20;94693.59;4380786;32;20293;-64
2022/09/30 05:46:27;;;;;;;2.77;2.67;;;;;;;9.89;96.00;94707.94;4366059;32;20278;-64
2022/09/30 05:48:54;;;;;;;3.07;2.87;;;;;;;9.80;96.30;94709.75;4388269;32;20250;-65
2022/09/30 05:51:21;;;;;;;3.43;3.33;;;;;;;9.87;96.32;94712.75;4375249;32;20219;-64
2022/09/30 05:53:48;;;;;;;2.53;2.43;;;;;;;9.96;95.97;94706.41;4362053;32;20273;-64
2022/09/30 05:56:16;;;;;;;3.70;3.50;;;;;;;9.87;95.97;94710.09;4388679;32;20227;-64
2022/09/30 05:58:43;;;;;;;3.27;2.80;;;;;;;9.74;96.53;94716.25;4409222;32;20302;-66
2022/09/30 06:01:14;;;;;;;2.13;2.03;;;;;;;9.81;96.61;94720.03;4364715;32;20203;-66
2022/09/30 06:03:43;;;;;;;3.30;3.20;;;;;;;9.63;96.67;94726.31;4347854;32;20206;-66
2022/09/30 06:06:13;;;;;;;3.60;3.40;;;;;;;9.53;97.20;94727.34;4362919;32;20223;-64
2022/09/30 06:08:40;;;;;;;3.70;3.40;;;;;;;9.54;97.45;94728.91;4374478;32;20240;-64
2022/09/30 06:11:15;;;;;;;3.40;3.27;;;;;;;9.55;97.44;94741.06;4386403;32;20203;-64
2022/09/30 06:13:43;;;;;;;2.67;2.57;;;;;;;9.69;97.44;94734.91;4368232;32;20200;-64
2022/09/30 06:16:11;;;;;;;3.97;3.73;;;;;;;9.82;96.93;94734.06;4369726;32;20193;-64
2022/09/30 06:18:40;;;;;;;3.47;3.27;;;;;;;9.82;96.72;94742.00;4332616;32;20279;-64
2022/09/30 06:21:07;;;;;;;2.47;2.37;;;;;;;9.86;96.64;94742.97;4389835;32;20211;-64
2022/09/30 06:23:35;;;;;;;2.53;2.43;;;;;;;9.81;96.55;94748.38;4398344;32;20207;-64
2022/09/30 06:26:07;;;;;;;2.80;2.70;;;;;;;9.68;97.47;94743.94;4427865;32;20196;-64
2022/09/30 06:28:34;;;;;;;3.00;2.90;;;;;;;9.68;97.40;94751.91;4398985;32;20215;-64
2022/09/30 06:31:21;;;;;;;3.40;3.17;;;;;;;9.82;97.46;94750.72;4380256;32;20205;-64
2022/09/30 06:33:51;;;;;;;3.17;2.97;;;;;;;10.10;96.38;94748.72;4398666;32;20245;-64
2022/09/30 06:36:18;;;;;;;3.00;2.80;;;;;;;10.14;96.50;94752.34;4384445;32;20218;-64
2022/09/30 06:38:50;;;;;;;4.50;4.10;;;;;;;10.24;95.89;94756.63;4376711;32;20220;-64
2022/09/30 06:41:17;;;;;;;3.37;3.17;;;;;;;10.36;95.26;94758.72;4408580;32;20180;-64
2022/09/30 06:43:46;;;;;;;3.10;2.93;;;;;;;10.11;95.31;94752.94;4398209;32;20212;-64
2022/09/30 06:46:13;;;;;;;3.43;3.23;;;;;;;9.85;96.36;94759.94;4398739;32;20250;-64
2022/09/30 06:48:39;;;;;;;5.00;3.33;;;;;;;9.99;96.57;94764.09;4383210;32;20282;-64
2022/09/30 06:51:19;;;;;;;2.67;2.57;;;;;;;10.25;96.00;94763.47;4360737;32;20252;-64
2022/09/30 06:53:50;;;;;;;3.43;3.13;;;;;;;10.16;95.62;94774.03;4398446;32;20176;-64
2022/09/30 06:56:17;;;;;;;3.07;2.87;;;;;;;10.02;96.12;94775.94;4391269;32;20272;-64
2022/09/30 06:58:44;;;;;;;3.27;3.07;;;;;;;10.00;95.82;94778.13;4392612;32;20191;-64
2022/09/30 07:01:14;;;;;;;2.57;2.37;;;;;;;10.16;96.05;94781.19;4333234;32;20232;-64
2022/09/30 07:03:56;;;;;;;2.47;2.37;;;;;;;10.29;95.61;94781.13;4383945;32;20196;-64
2022/09/30 07:06:25;;;;;;;4.37;4.00;;;;;;;10.38;95.68;94780.41;4385575;32;20308;-64
2022/09/30 07:08:53;;;;;;;2.93;2.83;;;;;;;10.37;95.58;94786.78;4382477;32;20192;-64
2022/09/30 07:11:25;;;;;;;3.07;2.87;;;;;;;10.40;95.96;94788.81;4385846;32;20308;-64
2022/09/30 07:13:52;;;;;;;3.57;3.13;;;;;;;10.49;95.48;94787.00;4393709;32;20189;-64
2022/09/30 07:16:20;;;;;;;3.40;3.20;;;;;;;10.53;94.58;94793.25;4401918;32;20230;-64
2022/09/30 07:18:47;;;;;;;3.93;3.73;;;;;;;10.68;94.38;94792.84;4388345;32;20191;-64
2022/09/30 07:21:14;;;;;;;3.93;3.63;;;;;;;10.74;94.03;94794.28;4403417;32;20191;-64
2022/09/30 07:23:51;;;;;;;2.87;2.67;;;;;;;10.81;93.85;94802.56;4401158;32;20183;-64
2022/09/30 07:26:21;;;;;;;2.87;2.73;;;;;;;10.89;93.73;94801.03;4392074;32;20176;-64
2022/09/30 07:28:53;;;;;;;2.53;2.33;;;;;;;10.98;93.13;94807.94;4378930;32;20203;-64
2022/09/30 07:31:25;;;;;;;2.37;2.27;;;;;;;10.86;93.35;94801.63;4358755;32;20214;-64
2022/09/30 07:33:51;;;;;;;4.43;3.37;;;;;;;10.90;93.31;94798.06;4356631;32;20192;-65
2022/09/30 07:36:25;;;;;;;4.43;4.03;;;;;;;10.88;93.47;94794.16;4365072;32;20203;-65
2022/09/30 07:38:52;;;;;;;3.33;3.13;;;;;;;10.87;93.68;94790.72;4370617;32;20205;-64
2022/09/30 07:41:26;;;;;;;2.43;2.33;;;;;;;10.95;93.09;94792.63;4394274;32;20263;-64
2022/09/30 07:44:05;;;;;;;3.17;2.97;;;;;;;10.96;92.63;94786.22;4398687;32;20263;-65
2022/09/30 07:46:35;;;;;;;2.97;2.87;;;;;;;10.98;92.46;94784.06;4404370;32;20206;-65
2022/09/30 07:49:02;;;;;;;2.27;2.17;;;;;;;10.94;93.17;94791.06;4390673;32;20208;-64
2022/09/30 07:51:36;;;;;;;2.77;2.53;;;;;;;10.93;93.42;94789.50;4362474;32;20327;-65
2022/09/30 07:54:25;;;;;;;2.30;2.10;;;;;;;10.82;93.69;94795.37;4361061;32;20237;-64
2022/09/30 07:57:01;;;;;;;3.60;2.73;;;;;;;10.92;92.67;94797.75;4378630;32;20238;-65
2022/09/30 07:59:31;;;;;;;2.40;2.30;;;;;;;10.99;92.51;94798.88;4394180;32;20187;-64
2022/09/30 08:01:58;;;;;;;1.60;1.60;;;;;;;10.97;91.31;94803.72;4382268;32;20308;-65
2022/09/30 08:04:25;;;;;;;1.90;1.80;;;;;;;10.96;91.48;94807.47;4408603;32;20242;-65
2022/09/30 08:06:54;;;;;;;1.60;1.50;;;;;;;11.05;91.75;94812.00;4392897;32;20207;-64
2022/09/30 08:09:23;;;;;;;1.83;1.73;;;;;;;11.18;91.73;94816.41;4385110;32;20215;-64
2022/09/30 08:11:51;;;;;;;2.27;2.00;;;;;;;11.33;90.71;94823.94;4398855;32;20184;-64
2022/09/30 08:14:20;;;;;;;2.37;2.17;;;;;;;11.34;91.62;94828.16;4387621;32;20208;-65
2022/09/30 08:16:46;;;;;;;0.80;0.80;;;;;;;11.35;91.82;94825.19;4376747;32;20181;-65
2022/09/30 08:19:32;;;;;;;5.67;1.40;;;;;;;11.43;89.31;94818.31;4379456;32;20191;-65
2022/09/30 08:21:58;;;;;;;1.57;1.47;;;;;;;11.64;87.64;94819.28;4385796;32;20192;-65
2022/09/30 08:24:25;;;;;;;1.80;1.60;;;;;;;11.68;87.57;94822.88;4390659;32;20280;-65
2022/09/30 08:26:54;;;;;;;1.83;1.80;;;;;;;11.61;87.71;94835.88;4371310;32;20203;-65
2022/09/30 08:29:20;;;;;;;1.57;1.53;;;;;;;11.77;87.08;94830.12;4377537;32;20207;-66
2022/09/30 08:31:48;;;;;;;2.53;1.47;;;;;;;11.77;85.12;94822.94;4375140;32;20188;-64
2022/09/30 08:34:16;;;;;;;1.47;1.37;;;;;;;11.71;85.14;94819.59;4364423;32;20232;-65
2022/09/30 08:36:45;;;;;;;0.80;0.80;;;;;;;11.69;86.73;94831.63;4394305;32;20184;-65
2022/09/30 08:39:12;;;;;;;0.43;0.43;;;;;;;11.82;83.36;94833.41;4364080;32;20243;-65
2022/09/30 08:41:37;;;;;;;0.30;0.30;;;;;;;11.90;82.56;94832.59;4392860;32;20198;-64
2022/09/30 08:44:40;;;;;;;0.50;0.50;;;;;;;11.85;82.95;94831.97;4366536;32;20237;-65
2022/09/30 08:47:41;;;;;;;0.60;0.60;;;;;;;11.98;83.29;94839.81;4379212;32;20196;-65
2022/09/30 08:50:17;;;;;;;0.20;0.20;;;;;;;12.03;82.24;94849.50;4385640;32;20206;-65
2022/09/30 08:52:56;;;;;;;0.10;0.10;;;;;;;12.15;81.77;94849.66;4398105;32;20198;-64
2022/09/30 08:55:28;;;;;;;0.60;0.60;;;;;;;12.06;80.94;94851.50;4395882;32;20235;-65
2022/09/30 08:57:55;;;;;;;0.60;0.60;;;;;;;12.07;80.75;94846.97;4403822;32;20236;-65
2022/09/30 09:00:21;;;;;;;0.40;0.40;;;;;;;12.20;80.76;94851.38;4391466;32;20176;-64
2022/09/30 09:02:54;;;;;;;0.67;0.67;;;;;;;12.20;81.25;94865.44;4395408;32;20195;-64
2022/09/30 09:05:27;;;;;;;0.40;0.40;;;;;;;12.26;82.06;94861.50;4399024;32;20177;-64
2022/09/30 09:08:27;;;;;;;0.37;0.37;;;;;;;12.24;83.24;94863.72;4399498;32;20199;-64
2022/09/30 09:11:17;;;;;;;2.87;0.50;;;;;;;12.19;83.59;94863.87;4405297;32;20206;-64
2022/09/30 09:14:11;;;;;;;0.67;0.67;;;;;;;12.23;84.33;94864.81;4419945;32;20199;-64
2022/09/30 09:17:26;;;;;;;0.40;0.37;;;;;;;12.23;83.35;94875.47;4398995;32;20188;-64
2022/09/30 09:20:04;;;;;;;0.40;0.40;;;;;;;12.32;82.68;94880.75;4404894;32;20189;-64
2022/09/30 09:22:30;;;;;;;0.53;0.53;;;;;;;12.22;80.62;94889.06;4398961;32;20192;-64
2022/09/30 09:24:57;;;;;;;0.40;0.40;;;;;;;12.20;81.58;94886.72;4401054;32;20203;-64
2022/09/30 09:27:40;;;;;;;0.23;0.23;;;;;;;12.33;81.89;94891.09;4399492;32;20188;-64
2022/09/30 09:30:17;;;;;;;0.30;0.30;;;;;;;12.39;82.03;94903.13;4407162;32;20237;-64
2022/09/30 09:32:55;;;;;;;0.10;0.10;;;;;;;12.44;82.31;94896.88;4393928;32;20194;-64
2022/09/30 09:35:23;;;;;;;0.13;0.13;;;;;;;12.48;81.81;94905.78;4397885;32;20183;-64
2022/09/30 09:38:23;;;;;;;0.27;0.27;;;;;;;12.43;81.71;94899.84;4390412;32;20207;-64
2022/09/30 09:41:07;;;;;;;0.33;0.33;;;;;;;12.38;81.33;94900.78;4395210;32;20196;-64
2022/09/30 09:43:59;;;;;;;0.80;0.80;;;;;;;12.45;81.55;94890.47;4387088;32;20264;-64
2022/09/30 09:46:42;;;;;;;0.33;0.33;;;;;;;12.50;80.93;94897.47;4392531;32;20238;-64
2022/09/30 09:49:15;;;;;;;0.30;0.30;;;;;;;12.54;83.02;94904.53;4401958;32;20232;-65
2022/09/30 09:52:02;;;;;;;0.20;0.20;;;;;;;12.52;81.79;94895.28;4401239;32;20189;-66
2022/09/30 09:54:29;;;;;;;0.10;0.10;;;;;;;12.57;80.82;94897.78;4399175;32;20283;-66
2022/09/30 09:56:55;;;;;;;0.37;0.37;;;;;;;12.61;80.64;94896.06;4401567;32;20188;-65
2022/09/30 09:59:20;;;;;;;0.10;0.10;;;;;;;12.73;81.78;94893.53;4402610;32;20192;-65
2022/09/30 10:01:52;;;;;;;1.70;0.47;;;;;;;12.78;82.37;94888.03;4396590;32;20181;-65
2022/09/30 10:04:27;;;;;;;0.10;0.10;;;;;;;12.72;81.36;94883.97;4396156;32;20262;-64
2022/09/30 10:06:58;;;;;;;0.37;0.37;;;;;;;12.74;81.71;94881.78;4381393;32;20195;-65
2022/09/30 10:09:26;;;;;;;0.00;0.00;;;;;;;12.65;80.41;94883.69;4393093;32;20224;-65
2022/09/30 10:12:07;;;;;;;0.27;0.27;;;;;;;12.79;81.32;94894.16;4392887;32;20215;-65
2022/09/30 10:14:45;;;;;;;0.83;0.70;;;;;;;12.67;80.96;94905.44;4392128;32;20193;-65
2022/09/30 10:17:34;;;;;;;0.40;0.40;;;;;;;12.74;80.62;94906.50;4411279;32;20207;-65
2022/09/30 10:20:05;;;;;;;0.50;0.30;;;;;;;12.83;81.23;94906.50;4406689;32;20188;-65
2022/09/30 10:22:31;;;;;;;0.40;0.40;;;;;;;12.90;81.52;94901.47;4392912;32;20233;-64
2022/09/30 10:25:20;;;;;;;0.30;0.30;;;;;;;12.98;82.27;94898.00;4383591;32;20280;-65
2022/09/30 10:27:47;;;;;;;0.30;0.30;;;;;;;12.97;82.88;94911.63;4393638;32;20192;-65
2022/09/30 10:30:12;;;;;;;0.60;0.30;;;;;;;12.98;80.38;94916.63;4394548;32;20196;-64
2022/09/30 10:32:38;;;;;;;0.10;0.10;;;;;;;12.78;80.84;94900.56;4392639;32;20203;-64
2022/09/30 10:35:16;;;;;;;0.33;0.33;;;;;;;12.82;80.00;94894.28;4389581;32;20216;-64
2022/09/30 10:37:53;;;;;;;0.40;0.40;;;;;;;12.82;79.76;94896.19;4391207;32;20203;-64
2022/09/30 10:40:25;;;;;;;0.23;0.23;;;;;;;12.81;79.30;94903.38;4405119;32;20195;-64
2022/09/30 10:42:51;;;;;;;0.13;0.13;;;;;;;12.79;78.82;94905.56;4415900;32;20237;-64
2022/09/30 10:45:21;;;;;;;0.10;0.10;;;;;;;12.77;77.21;94907.75;4396609;32;20188;-64
2022/09/30 10:47:51;;;;;;;0.10;0.10;;;;;;;12.69;78.21;94900.56;4396218;32;20219;-64
2022/09/30 10:50:21;;;;;;;0.30;0.30;;;;;;;12.67;78.41;94905.44;4399944;32;20188;-64
2022/09/30 10:52:51;;;;;;;0.17;0.17;;;;;;;12.63;77.62;94907.19;4393048;32;20196;-67
2022/09/30 10:55:20;;;;;;;0.10;0.10;;;;;;;12.70;78.51;94912.78;4397331;32;20192;-64
2022/09/30 10:57:47;;;;;;;0.30;0.30;;;;;;;12.81;80.78;94914.03;4398429;32;20192;-64
2022/09/30 11:00:17;;;;;;;0.33;0.33;;;;;;;12.84;80.57;94918.72;4388767;32;20279;-67
2022/09/30 11:02:56;;;;;;;0.20;0.20;;;;;;;12.81;79.55;94913.25;4406049;32;20188;-67
2022/09/30 11:05:39;;;;;;;1.30;0.63;;;;;;;12.98;79.36;94921.19;4387866;32;20202;-64
2022/09/30 11:08:15;;;;;;;0.20;0.20;;;;;;;13.05;79.36;94927.59;4383766;32;20184;-65
2022/09/30 11:11:04;;;;;;;0.53;0.37;;;;;;;13.03;80.12;94927.13;4403326;32;20202;-64
2022/09/30 11:13:35;;;;;;;0.27;0.27;;;;;;;13.12;80.30;94924.41;4400315;32;20188;-64
2022/09/30 11:16:22;;;;;;;0.13;0.13;;;;;;;13.16;80.10;94924.59;4410033;32;20180;-64
2022/09/30 11:19:18;;;;;;;0.10;0.10;;;;;;;13.12;80.50;94939.63;4384851;32;20196;-64
2022/09/30 11:21:56;;;;;;;0.20;0.20;;;;;;;13.03;81.04;94940.44;4392444;32;20203;-65
2022/09/30 11:24:36;;;;;;;0.50;0.50;;;;;;;13.03;81.47;94942.31;4393176;32;20242;-64
2022/09/30 11:27:23;;;;;;;0.23;0.23;;;;;;;13.03;80.75;94948.44;4381934;32;20188;-64
2022/09/30 11:29:50;;;;;;;0.47;0.47;;;;;;;12.97;80.04;94949.69;4399677;32;20241;-64
2022/09/30 11:32:16;;;;;;;0.20;0.20;;;;;;;13.05;81.15;94956.88;4404657;32;20192;-64
2022/09/30 11:34:55;;;;;;;0.60;0.60;;;;;;;12.92;80.71;94957.06;4402712;32;20195;-64
2022/09/30 11:37:54;;;;;;;0.60;0.60;;;;;;;12.82;81.26;94958.19;4399074;32;20184;-64
2022/09/30 11:40:56;;;;;;;0.23;0.23;;;;;;;12.70;83.00;94960.69;4395270;32;20183;-64
2022/09/30 11:43:57;;;;;;;0.77;0.37;;;;;;;12.83;82.88;94949.09;4385280;32;20251;-64
2022/09/30 11:46:41;;;;;;;0.70;0.70;;;;;;;12.87;82.56;94931.41;4350081;32;20193;-64
2022/09/30 11:49:22;;;;;;;0.77;0.77;;;;;;;12.78;82.36;94937.81;4404739;32;20207;-64
2022/09/30 11:52:15;;;;;;;3.97;3.43;;;;;;;12.84;82.84;94934.69;4394154;32;20290;-64
2022/09/30 11:54:56;;;;;;;0.43;0.43;;;;;;;12.99;81.46;94942.16;4402141;32;20184;-64
2022/09/30 11:57:39;;;;;;;0.30;0.30;;;;;;;13.00;81.07;94935.75;4396123;32;20181;-64
2022/09/30 12:00:17;;;;;;;2.40;2.30;;;;;;;12.99;80.98;94942.16;4395465;32;20222;-64
2022/09/30 12:02:49;;;;;;;0.33;0.33;;;;;;;13.01;81.87;94944.50;4389143;32;20183;-64
2022/09/30 12:05:23;;;;;;;0.87;0.87;;;;;;;13.08;82.32;94955.47;4394160;32;20242;-64
2022/09/30 12:07:57;;;;;;;0.47;0.47;;;;;;;13.02;81.57;94951.41;4414593;32;20188;-64
2022/09/30 12:10:34;;;;;;;0.30;0.30;;;;;;;13.16;81.42;94951.22;4377098;32;20180;-64
2022/09/30 12:13:12;;;;;;;0.37;0.37;;;;;;;13.08;80.56;94939.50;4396574;32;20202;-64